sensor_id;sensor_type;location;lat;lon;timestamp;P1;durP1;ratioP1;P2;durP2;ratioP2
15307;SDS011;7755;52.208;6.964;2024-02-21T00:00:04;28.10;;;16.50;;
15307;SDS011;7755;52.208;6.964;2024-02-21T00:04:14;27.30;;;16.63;;
15307;SDS011;7755;52.208;6.964;2024-02-21T00:08:19;22.43;;;14.20;;
15307;SDS011;7755;52.208;6.964;2024-02-21T00:12:24;26.00;;;16.73;;
15307;SDS011;7755;52.208;6.964;2024-02-21T00:16:29;24.27;;;15.87;;
15307;SDS011;7755;52.208;6.964;2024-02-21T00:20:36;26.87;;;16.47;;
15307;SDS011;7755;52.208;6.964;2024-02-21T00:24:41;28.00;;;16.77;;
15307;SDS011;7755;52.208;6.964;2024-02-21T00:28:46;25.73;;;16.13;;
15307;SDS011;7755;52.208;6.964;2024-02-21T00:32:51;23.80;;;15.17;;
15307;SDS011;7755;52.208;6.964;2024-02-21T00:36:59;22.57;;;14.83;;
15307;SDS011;7755;52.208;6.964;2024-02-21T00:41:04;28.87;;;15.67;;
15307;SDS011;7755;52.208;6.964;2024-02-21T00:45:09;26.10;;;14.90;;
15307;SDS011;7755;52.208;6.964;2024-02-21T00:49:14;22.50;;;14.03;;
15307;SDS011;7755;52.208;6.964;2024-02-21T00:53:22;24.67;;;15.17;;
15307;SDS011;7755;52.208;6.964;2024-02-21T00:57:26;21.57;;;14.57;;
15307;SDS011;7755;52.208;6.964;2024-02-21T01:01:31;21.93;;;14.33;;
15307;SDS011;7755;52.208;6.964;2024-02-21T01:05:36;22.17;;;14.03;;
15307;SDS011;7755;52.208;6.964;2024-02-21T01:09:44;23.17;;;14.87;;
15307;SDS011;7755;52.208;6.964;2024-02-21T01:13:49;20.73;;;13.70;;
15307;SDS011;7755;52.208;6.964;2024-02-21T01:17:54;24.83;;;14.17;;
15307;SDS011;7755;52.208;6.964;2024-02-21T01:21:59;31.00;;;14.13;;
15307;SDS011;7755;52.208;6.964;2024-02-21T01:26:08;18.03;;;13.37;;
15307;SDS011;7755;52.208;6.964;2024-02-21T01:30:15;23.57;;;15.07;;
15307;SDS011;7755;52.208;6.964;2024-02-21T01:34:20;21.73;;;15.07;;
15307;SDS011;7755;52.208;6.964;2024-02-21T01:38:28;21.93;;;14.20;;
15307;SDS011;7755;52.208;6.964;2024-02-21T01:42:40;19.87;;;15.23;;
15307;SDS011;7755;52.208;6.964;2024-02-21T01:46:45;22.53;;;14.87;;
15307;SDS011;7755;52.208;6.964;2024-02-21T01:50:50;24.27;;;15.70;;
15307;SDS011;7755;52.208;6.964;2024-02-21T01:54:56;20.97;;;14.57;;
15307;SDS011;7755;52.208;6.964;2024-02-21T01:59:04;24.20;;;15.67;;
15307;SDS011;7755;52.208;6.964;2024-02-21T02:03:09;30.07;;;14.93;;
15307;SDS011;7755;52.208;6.964;2024-02-21T02:07:18;25.10;;;15.97;;
15307;SDS011;7755;52.208;6.964;2024-02-21T02:11:23;24.57;;;14.57;;
15307;SDS011;7755;52.208;6.964;2024-02-21T02:15:39;19.13;;;14.63;;
15307;SDS011;7755;52.208;6.964;2024-02-21T02:19:44;22.40;;;14.50;;
15307;SDS011;7755;52.208;6.964;2024-02-21T02:23:52;23.40;;;15.23;;
15307;SDS011;7755;52.208;6.964;2024-02-21T02:27:57;28.33;;;16.13;;
15307;SDS011;7755;52.208;6.964;2024-02-21T02:32:03;29.77;;;15.73;;
15307;SDS011;7755;52.208;6.964;2024-02-21T02:36:08;23.97;;;14.20;;
15307;SDS011;7755;52.208;6.964;2024-02-21T02:40:16;22.43;;;14.53;;
15307;SDS011;7755;52.208;6.964;2024-02-21T02:44:20;23.70;;;15.17;;
15307;SDS011;7755;52.208;6.964;2024-02-21T02:48:25;31.57;;;15.93;;
15307;SDS011;7755;52.208;6.964;2024-02-21T02:52:30;22.97;;;15.13;;
15307;SDS011;7755;52.208;6.964;2024-02-21T02:56:38;21.10;;;14.80;;
15307;SDS011;7755;52.208;6.964;2024-02-21T03:00:43;25.97;;;14.77;;
15307;SDS011;7755;52.208;6.964;2024-02-21T03:04:48;22.53;;;14.30;;
15307;SDS011;7755;52.208;6.964;2024-02-21T03:08:53;18.87;;;14.87;;
15307;SDS011;7755;52.208;6.964;2024-02-21T03:13:00;22.03;;;14.50;;
15307;SDS011;7755;52.208;6.964;2024-02-21T03:17:05;24.17;;;14.13;;
15307;SDS011;7755;52.208;6.964;2024-02-21T03:21:10;24.23;;;14.03;;
15307;SDS011;7755;52.208;6.964;2024-02-21T03:25:15;23.50;;;14.10;;
15307;SDS011;7755;52.208;6.964;2024-02-21T03:29:24;21.63;;;13.10;;
15307;SDS011;7755;52.208;6.964;2024-02-21T03:33:29;21.53;;;14.00;;
15307;SDS011;7755;52.208;6.964;2024-02-21T03:37:34;20.67;;;14.43;;
15307;SDS011;7755;52.208;6.964;2024-02-21T03:41:39;23.70;;;15.07;;
15307;SDS011;7755;52.208;6.964;2024-02-21T03:45:46;25.80;;;15.10;;
15307;SDS011;7755;52.208;6.964;2024-02-21T03:49:51;21.63;;;14.20;;
15307;SDS011;7755;52.208;6.964;2024-02-21T03:53:56;27.97;;;15.17;;
15307;SDS011;7755;52.208;6.964;2024-02-21T03:58:01;24.03;;;14.23;;
15307;SDS011;7755;52.208;6.964;2024-02-21T04:02:09;21.57;;;14.77;;
15307;SDS011;7755;52.208;6.964;2024-02-21T04:06:14;22.13;;;15.07;;
15307;SDS011;7755;52.208;6.964;2024-02-21T04:10:19;23.23;;;14.87;;
15307;SDS011;7755;52.208;6.964;2024-02-21T04:14:24;23.17;;;14.30;;
15307;SDS011;7755;52.208;6.964;2024-02-21T04:18:31;24.50;;;15.27;;
15307;SDS011;7755;52.208;6.964;2024-02-21T04:22:36;27.80;;;14.90;;
15307;SDS011;7755;52.208;6.964;2024-02-21T04:26:41;19.10;;;14.80;;
15307;SDS011;7755;52.208;6.964;2024-02-21T04:30:46;20.77;;;15.10;;
15307;SDS011;7755;52.208;6.964;2024-02-21T04:34:54;24.77;;;14.83;;
15307;SDS011;7755;52.208;6.964;2024-02-21T04:38:59;22.27;;;15.57;;
15307;SDS011;7755;52.208;6.964;2024-02-21T04:43:04;28.77;;;15.20;;
15307;SDS011;7755;52.208;6.964;2024-02-21T04:47:09;22.27;;;14.53;;
15307;SDS011;7755;52.208;6.964;2024-02-21T04:51:16;25.70;;;13.63;;
15307;SDS011;7755;52.208;6.964;2024-02-21T04:55:21;20.27;;;13.43;;
15307;SDS011;7755;52.208;6.964;2024-02-21T04:59:26;24.27;;;14.67;;
15307;SDS011;7755;52.208;6.964;2024-02-21T05:03:31;24.27;;;15.43;;
15307;SDS011;7755;52.208;6.964;2024-02-21T05:07:39;18.73;;;12.57;;
15307;SDS011;7755;52.208;6.964;2024-02-21T05:11:44;16.77;;;12.40;;
15307;SDS011;7755;52.208;6.964;2024-02-21T05:15:49;23.47;;;12.07;;
15307;SDS011;7755;52.208;6.964;2024-02-21T05:19:54;18.43;;;11.70;;
15307;SDS011;7755;52.208;6.964;2024-02-21T05:24:02;18.70;;;11.73;;
15307;SDS011;7755;52.208;6.964;2024-02-21T05:28:07;16.03;;;12.33;;
15307;SDS011;7755;52.208;6.964;2024-02-21T05:32:12;17.77;;;10.73;;
15307;SDS011;7755;52.208;6.964;2024-02-21T05:36:18;17.40;;;11.37;;
15307;SDS011;7755;52.208;6.964;2024-02-21T05:40:25;14.30;;;10.80;;
15307;SDS011;7755;52.208;6.964;2024-02-21T05:44:30;13.93;;;10.47;;
15307;SDS011;7755;52.208;6.964;2024-02-21T05:48:35;16.13;;;10.93;;
15307;SDS011;7755;52.208;6.964;2024-02-21T05:52:40;16.33;;;11.40;;
15307;SDS011;7755;52.208;6.964;2024-02-21T05:56:48;17.47;;;10.83;;
15307;SDS011;7755;52.208;6.964;2024-02-21T06:00:54;17.93;;;10.47;;
15307;SDS011;7755;52.208;6.964;2024-02-21T06:04:59;15.73;;;9.63;;
15307;SDS011;7755;52.208;6.964;2024-02-21T06:09:04;12.93;;;10.03;;
15307;SDS011;7755;52.208;6.964;2024-02-21T06:13:11;15.23;;;9.90;;
15307;SDS011;7755;52.208;6.964;2024-02-21T06:17:16;15.30;;;9.70;;
15307;SDS011;7755;52.208;6.964;2024-02-21T06:21:21;15.77;;;9.40;;
15307;SDS011;7755;52.208;6.964;2024-02-21T06:25:26;18.93;;;8.90;;
15307;SDS011;7755;52.208;6.964;2024-02-21T06:29:34;18.53;;;9.93;;
15307;SDS011;7755;52.208;6.964;2024-02-21T06:33:40;17.53;;;10.87;;
15307;SDS011;7755;52.208;6.964;2024-02-21T06:37:45;15.33;;;9.63;;
15307;SDS011;7755;52.208;6.964;2024-02-21T06:41:53;15.23;;;10.33;;
15307;SDS011;7755;52.208;6.964;2024-02-21T06:46:06;14.97;;;10.30;;
15307;SDS011;7755;52.208;6.964;2024-02-21T06:50:11;14.07;;;10.57;;
15307;SDS011;7755;52.208;6.964;2024-02-21T06:54:16;12.67;;;10.07;;
15307;SDS011;7755;52.208;6.964;2024-02-21T06:58:21;16.37;;;10.57;;
15307;SDS011;7755;52.208;6.964;2024-02-21T07:02:28;19.03;;;11.63;;
15307;SDS011;7755;52.208;6.964;2024-02-21T07:06:33;19.97;;;11.33;;
15307;SDS011;7755;52.208;6.964;2024-02-21T07:10:38;16.43;;;11.17;;
15307;SDS011;7755;52.208;6.964;2024-02-21T07:14:44;17.57;;;10.67;;
15307;SDS011;7755;52.208;6.964;2024-02-21T07:18:51;20.97;;;11.73;;
15307;SDS011;7755;52.208;6.964;2024-02-21T07:22:56;18.73;;;10.83;;
15307;SDS011;7755;52.208;6.964;2024-02-21T07:27:01;15.90;;;11.13;;
15307;SDS011;7755;52.208;6.964;2024-02-21T07:31:07;18.27;;;11.23;;
15307;SDS011;7755;52.208;6.964;2024-02-21T07:35:14;18.87;;;10.67;;
15307;SDS011;7755;52.208;6.964;2024-02-21T07:39:20;17.10;;;11.47;;
15307;SDS011;7755;52.208;6.964;2024-02-21T07:43:24;15.47;;;10.97;;
15307;SDS011;7755;52.208;6.964;2024-02-21T07:47:30;16.73;;;11.30;;
15307;SDS011;7755;52.208;6.964;2024-02-21T07:51:37;19.27;;;9.93;;
15307;SDS011;7755;52.208;6.964;2024-02-21T07:55:43;21.70;;;11.90;;
15307;SDS011;7755;52.208;6.964;2024-02-21T07:59:49;15.50;;;10.07;;
15307;SDS011;7755;52.208;6.964;2024-02-21T08:03:54;13.87;;;9.40;;
15307;SDS011;7755;52.208;6.964;2024-02-21T08:08:03;12.97;;;8.80;;
15307;SDS011;7755;52.208;6.964;2024-02-21T08:12:09;12.60;;;8.77;;
15307;SDS011;7755;52.208;6.964;2024-02-21T08:16:14;15.00;;;9.67;;
15307;SDS011;7755;52.208;6.964;2024-02-21T08:20:19;12.03;;;9.00;;
15307;SDS011;7755;52.208;6.964;2024-02-21T08:24:27;11.67;;;8.10;;
15307;SDS011;7755;52.208;6.964;2024-02-21T08:28:32;12.03;;;9.23;;
15307;SDS011;7755;52.208;6.964;2024-02-21T08:32:37;10.27;;;7.93;;
15307;SDS011;7755;52.208;6.964;2024-02-21T08:36:42;11.40;;;8.23;;
15307;SDS011;7755;52.208;6.964;2024-02-21T08:40:50;14.23;;;8.50;;
15307;SDS011;7755;52.208;6.964;2024-02-21T08:44:55;11.97;;;8.67;;
15307;SDS011;7755;52.208;6.964;2024-02-21T08:49:00;13.20;;;7.90;;
15307;SDS011;7755;52.208;6.964;2024-02-21T08:53:05;13.57;;;8.57;;
15307;SDS011;7755;52.208;6.964;2024-02-21T08:57:12;12.63;;;8.40;;
15307;SDS011;7755;52.208;6.964;2024-02-21T09:01:17;11.23;;;7.53;;
15307;SDS011;7755;52.208;6.964;2024-02-21T09:05:22;13.00;;;7.83;;
15307;SDS011;7755;52.208;6.964;2024-02-21T09:09:28;10.17;;;7.33;;
15307;SDS011;7755;52.208;6.964;2024-02-21T09:13:37;16.43;;;8.80;;
15307;SDS011;7755;52.208;6.964;2024-02-21T09:17:42;11.63;;;7.50;;
15307;SDS011;7755;52.208;6.964;2024-02-21T09:21:47;11.17;;;7.77;;
15307;SDS011;7755;52.208;6.964;2024-02-21T09:25:52;12.93;;;8.00;;
15307;SDS011;7755;52.208;6.964;2024-02-21T09:29:59;7.90;;;7.10;;
15307;SDS011;7755;52.208;6.964;2024-02-21T09:34:06;14.10;;;8.13;;
15307;SDS011;7755;52.208;6.964;2024-02-21T09:38:13;10.00;;;7.67;;
15307;SDS011;7755;52.208;6.964;2024-02-21T09:42:18;16.87;;;9.10;;
15307;SDS011;7755;52.208;6.964;2024-02-21T09:46:32;14.10;;;7.77;;
15307;SDS011;7755;52.208;6.964;2024-02-21T09:50:47;14.53;;;7.93;;
15307;SDS011;7755;52.208;6.964;2024-02-21T09:54:54;11.67;;;7.40;;
15307;SDS011;7755;52.208;6.964;2024-02-21T09:59:00;12.17;;;7.63;;
15307;SDS011;7755;52.208;6.964;2024-02-21T10:03:09;10.23;;;7.00;;
15307;SDS011;7755;52.208;6.964;2024-02-21T10:07:15;12.07;;;7.73;;
15307;SDS011;7755;52.208;6.964;2024-02-21T10:11:24;13.40;;;7.43;;
15307;SDS011;7755;52.208;6.964;2024-02-21T10:15:30;11.73;;;8.03;;
15307;SDS011;7755;52.208;6.964;2024-02-21T10:19:37;9.80;;;8.80;;
15307;SDS011;7755;52.208;6.964;2024-02-21T10:23:44;12.20;;;8.50;;
15307;SDS011;7755;52.208;6.964;2024-02-21T10:27:49;11.10;;;7.73;;
15307;SDS011;7755;52.208;6.964;2024-02-21T10:32:03;10.57;;;7.53;;
15307;SDS011;7755;52.208;6.964;2024-02-21T10:36:12;11.83;;;8.07;;
15307;SDS011;7755;52.208;6.964;2024-02-21T10:40:18;10.93;;;8.20;;
15307;SDS011;7755;52.208;6.964;2024-02-21T10:44:23;12.70;;;7.70;;
15307;SDS011;7755;52.208;6.964;2024-02-21T10:48:41;10.67;;;7.70;;
15307;SDS011;7755;52.208;6.964;2024-02-21T10:52:55;6.97;;;6.00;;
15307;SDS011;7755;52.208;6.964;2024-02-21T10:57:11;7.77;;;6.53;;
15307;SDS011;7755;52.208;6.964;2024-02-21T11:01:18;10.90;;;6.33;;
15307;SDS011;7755;52.208;6.964;2024-02-21T11:05:24;9.73;;;6.27;;
15307;SDS011;7755;52.208;6.964;2024-02-21T11:09:32;8.63;;;6.10;;
15307;SDS011;7755;52.208;6.964;2024-02-21T11:13:38;8.13;;;6.17;;
15307;SDS011;7755;52.208;6.964;2024-02-21T11:17:53;8.67;;;5.73;;
15307;SDS011;7755;52.208;6.964;2024-02-21T11:22:02;8.57;;;5.53;;
15307;SDS011;7755;52.208;6.964;2024-02-21T11:26:22;10.87;;;6.20;;
15307;SDS011;7755;52.208;6.964;2024-02-21T11:30:27;8.73;;;5.33;;
15307;SDS011;7755;52.208;6.964;2024-02-21T11:34:32;7.77;;;5.40;;
15307;SDS011;7755;52.208;6.964;2024-02-21T11:38:37;9.07;;;5.53;;
15307;SDS011;7755;52.208;6.964;2024-02-21T11:42:44;6.77;;;5.17;;
15307;SDS011;7755;52.208;6.964;2024-02-21T11:46:49;7.50;;;6.20;;
15307;SDS011;7755;52.208;6.964;2024-02-21T11:50:54;6.67;;;5.97;;
15307;SDS011;7755;52.208;6.964;2024-02-21T11:54:59;6.23;;;5.70;;
15307;SDS011;7755;52.208;6.964;2024-02-21T11:59:10;8.70;;;6.40;;
15307;SDS011;7755;52.208;6.964;2024-02-21T12:03:14;9.43;;;5.97;;
15307;SDS011;7755;52.208;6.964;2024-02-21T12:07:20;7.00;;;6.40;;
15307;SDS011;7755;52.208;6.964;2024-02-21T12:11:26;9.27;;;6.33;;
15307;SDS011;7755;52.208;6.964;2024-02-21T12:15:33;8.33;;;6.27;;
15307;SDS011;7755;52.208;6.964;2024-02-21T12:19:38;9.60;;;6.93;;
15307;SDS011;7755;52.208;6.964;2024-02-21T12:23:43;9.37;;;6.93;;
15307;SDS011;7755;52.208;6.964;2024-02-21T12:27:48;8.80;;;6.30;;
15307;SDS011;7755;52.208;6.964;2024-02-21T12:31:56;8.67;;;6.37;;
15307;SDS011;7755;52.208;6.964;2024-02-21T12:36:01;6.00;;;5.33;;
15307;SDS011;7755;52.208;6.964;2024-02-21T12:40:07;7.23;;;5.60;;
15307;SDS011;7755;52.208;6.964;2024-02-21T12:44:13;9.73;;;6.10;;
15307;SDS011;7755;52.208;6.964;2024-02-21T12:48:21;7.63;;;5.20;;
15307;SDS011;7755;52.208;6.964;2024-02-21T12:52:26;7.93;;;6.03;;
15307;SDS011;7755;52.208;6.964;2024-02-21T12:56:31;9.63;;;5.70;;
15307;SDS011;7755;52.208;6.964;2024-02-21T13:00:36;8.27;;;6.03;;
15307;SDS011;7755;52.208;6.964;2024-02-21T13:04:44;6.20;;;5.53;;
15307;SDS011;7755;52.208;6.964;2024-02-21T13:08:50;13.00;;;8.43;;
15307;SDS011;7755;52.208;6.964;2024-02-21T13:12:55;7.90;;;6.37;;
15307;SDS011;7755;52.208;6.964;2024-02-21T13:17:00;9.87;;;5.53;;
15307;SDS011;7755;52.208;6.964;2024-02-21T13:21:08;8.10;;;5.77;;
15307;SDS011;7755;52.208;6.964;2024-02-21T13:25:13;7.87;;;5.80;;
15307;SDS011;7755;52.208;6.964;2024-02-21T13:29:22;8.33;;;5.47;;
15307;SDS011;7755;52.208;6.964;2024-02-21T13:33:26;6.97;;;5.30;;
15307;SDS011;7755;52.208;6.964;2024-02-21T13:37:34;9.33;;;5.87;;
15307;SDS011;7755;52.208;6.964;2024-02-21T13:41:39;8.70;;;6.30;;
15307;SDS011;7755;52.208;6.964;2024-02-21T13:45:46;8.43;;;5.37;;
15307;SDS011;7755;52.208;6.964;2024-02-21T13:50:00;8.50;;;5.70;;
15307;SDS011;7755;52.208;6.964;2024-02-21T13:54:08;7.50;;;5.93;;
15307;SDS011;7755;52.208;6.964;2024-02-21T13:58:16;7.93;;;5.63;;
15307;SDS011;7755;52.208;6.964;2024-02-21T14:02:22;8.67;;;5.77;;
15307;SDS011;7755;52.208;6.964;2024-02-21T14:06:27;7.00;;;5.20;;
15307;SDS011;7755;52.208;6.964;2024-02-21T14:10:35;8.67;;;5.57;;
15307;SDS011;7755;52.208;6.964;2024-02-21T14:14:41;6.43;;;5.20;;
15307;SDS011;7755;52.208;6.964;2024-02-21T14:18:47;6.00;;;5.40;;
15307;SDS011;7755;52.208;6.964;2024-02-21T14:22:52;6.33;;;5.33;;
15307;SDS011;7755;52.208;6.964;2024-02-21T14:27:00;7.47;;;5.13;;
15307;SDS011;7755;52.208;6.964;2024-02-21T14:31:05;10.07;;;5.47;;
15307;SDS011;7755;52.208;6.964;2024-02-21T14:35:10;10.30;;;5.87;;
15307;SDS011;7755;52.208;6.964;2024-02-21T14:39:17;7.27;;;5.40;;
15307;SDS011;7755;52.208;6.964;2024-02-21T14:43:25;8.97;;;5.40;;
15307;SDS011;7755;52.208;6.964;2024-02-21T14:47:30;7.43;;;5.37;;
15307;SDS011;7755;52.208;6.964;2024-02-21T14:51:35;12.47;;;6.90;;
15307;SDS011;7755;52.208;6.964;2024-02-21T14:55:40;9.03;;;5.50;;
15307;SDS011;7755;52.208;6.964;2024-02-21T14:59:48;10.30;;;6.47;;
15307;SDS011;7755;52.208;6.964;2024-02-21T15:03:58;6.30;;;5.27;;
15307;SDS011;7755;52.208;6.964;2024-02-21T15:08:03;6.83;;;5.73;;
15307;SDS011;7755;52.208;6.964;2024-02-21T15:12:09;8.70;;;5.63;;
15307;SDS011;7755;52.208;6.964;2024-02-21T15:16:17;10.93;;;5.20;;
15307;SDS011;7755;52.208;6.964;2024-02-21T15:20:22;8.57;;;5.37;;
15307;SDS011;7755;52.208;6.964;2024-02-21T15:24:27;7.80;;;4.43;;
15307;SDS011;7755;52.208;6.964;2024-02-21T15:28:32;6.00;;;4.50;;
15307;SDS011;7755;52.208;6.964;2024-02-21T15:32:40;6.43;;;5.00;;
15307;SDS011;7755;52.208;6.964;2024-02-21T15:36:47;8.37;;;5.10;;
15307;SDS011;7755;52.208;6.964;2024-02-21T15:40:52;8.63;;;5.30;;
15307;SDS011;7755;52.208;6.964;2024-02-21T15:44:57;9.37;;;4.70;;
15307;SDS011;7755;52.208;6.964;2024-02-21T15:49:05;9.40;;;5.27;;
15307;SDS011;7755;52.208;6.964;2024-02-21T15:53:10;9.57;;;4.80;;
15307;SDS011;7755;52.208;6.964;2024-02-21T15:57:15;7.00;;;4.97;;
15307;SDS011;7755;52.208;6.964;2024-02-21T16:01:20;12.60;;;5.40;;
15307;SDS011;7755;52.208;6.964;2024-02-21T16:05:28;7.40;;;4.80;;
15307;SDS011;7755;52.208;6.964;2024-02-21T16:09:33;7.50;;;4.70;;
15307;SDS011;7755;52.208;6.964;2024-02-21T16:13:38;6.77;;;4.80;;
15307;SDS011;7755;52.208;6.964;2024-02-21T16:17:43;5.90;;;4.63;;
15307;SDS011;7755;52.208;6.964;2024-02-21T16:21:51;4.87;;;4.33;;
15307;SDS011;7755;52.208;6.964;2024-02-21T16:25:56;4.87;;;4.37;;
15307;SDS011;7755;52.208;6.964;2024-02-21T16:30:03;6.57;;;4.57;;
15307;SDS011;7755;52.208;6.964;2024-02-21T16:34:09;9.63;;;4.77;;
15307;SDS011;7755;52.208;6.964;2024-02-21T16:38:18;6.07;;;4.80;;
15307;SDS011;7755;52.208;6.964;2024-02-21T16:42:23;7.20;;;5.00;;
15307;SDS011;7755;52.208;6.964;2024-02-21T16:46:28;6.77;;;4.63;;
15307;SDS011;7755;52.208;6.964;2024-02-21T16:50:34;11.80;;;5.93;;
15307;SDS011;7755;52.208;6.964;2024-02-21T16:54:56;6.37;;;5.13;;
15307;SDS011;7755;52.208;6.964;2024-02-21T16:59:01;9.70;;;4.93;;
15307;SDS011;7755;52.208;6.964;2024-02-21T17:03:06;8.30;;;5.43;;
15307;SDS011;7755;52.208;6.964;2024-02-21T17:07:11;6.30;;;5.23;;
15307;SDS011;7755;52.208;6.964;2024-02-21T17:11:18;9.97;;;7.07;;
15307;SDS011;7755;52.208;6.964;2024-02-21T17:15:24;10.80;;;5.20;;
15307;SDS011;7755;52.208;6.964;2024-02-21T17:19:28;6.67;;;4.83;;
15307;SDS011;7755;52.208;6.964;2024-02-21T17:23:33;5.93;;;5.37;;
15307;SDS011;7755;52.208;6.964;2024-02-21T17:27:41;7.90;;;5.60;;
15307;SDS011;7755;52.208;6.964;2024-02-21T17:31:46;7.83;;;5.60;;
15307;SDS011;7755;52.208;6.964;2024-02-21T17:35:51;6.67;;;5.60;;
15307;SDS011;7755;52.208;6.964;2024-02-21T17:39:56;5.90;;;5.30;;
15307;SDS011;7755;52.208;6.964;2024-02-21T17:44:03;7.73;;;6.33;;
15307;SDS011;7755;52.208;6.964;2024-02-21T17:48:09;7.47;;;5.90;;
15307;SDS011;7755;52.208;6.964;2024-02-21T17:52:15;7.23;;;5.57;;
15307;SDS011;7755;52.208;6.964;2024-02-21T17:56:20;7.00;;;6.00;;
15307;SDS011;7755;52.208;6.964;2024-02-21T18:00:27;9.33;;;6.87;;
15307;SDS011;7755;52.208;6.964;2024-02-21T18:04:33;7.57;;;5.87;;
15307;SDS011;7755;52.208;6.964;2024-02-21T18:08:38;8.30;;;6.30;;
15307;SDS011;7755;52.208;6.964;2024-02-21T18:12:43;7.83;;;7.03;;
15307;SDS011;7755;52.208;6.964;2024-02-21T18:16:51;8.30;;;7.50;;
15307;SDS011;7755;52.208;6.964;2024-02-21T18:20:56;7.03;;;6.40;;
15307;SDS011;7755;52.208;6.964;2024-02-21T18:25:01;7.70;;;6.70;;
15307;SDS011;7755;52.208;6.964;2024-02-21T18:29:10;9.73;;;6.33;;
15307;SDS011;7755;52.208;6.964;2024-02-21T18:33:18;7.23;;;6.50;;
15307;SDS011;7755;52.208;6.964;2024-02-21T18:37:24;13.70;;;6.70;;
15307;SDS011;7755;52.208;6.964;2024-02-21T18:41:30;10.90;;;6.43;;
15307;SDS011;7755;52.208;6.964;2024-02-21T18:45:37;7.33;;;6.30;;
15307;SDS011;7755;52.208;6.964;2024-02-21T18:49:44;9.00;;;6.27;;
15307;SDS011;7755;52.208;6.964;2024-02-21T18:53:49;8.10;;;7.17;;
15307;SDS011;7755;52.208;6.964;2024-02-21T18:57:54;7.10;;;5.97;;
15307;SDS011;7755;52.208;6.964;2024-02-21T19:01:59;8.57;;;6.20;;
15307;SDS011;7755;52.208;6.964;2024-02-21T19:06:07;8.40;;;6.03;;
15307;SDS011;7755;52.208;6.964;2024-02-21T19:10:15;6.73;;;6.07;;
15307;SDS011;7755;52.208;6.964;2024-02-21T19:14:20;6.77;;;5.90;;
15307;SDS011;7755;52.208;6.964;2024-02-21T19:18:25;9.57;;;6.50;;
15307;SDS011;7755;52.208;6.964;2024-02-21T19:22:32;8.27;;;6.20;;
15307;SDS011;7755;52.208;6.964;2024-02-21T19:26:39;7.67;;;5.67;;
15307;SDS011;7755;52.208;6.964;2024-02-21T19:30:44;7.20;;;5.33;;
15307;SDS011;7755;52.208;6.964;2024-02-21T19:34:50;7.43;;;5.67;;
15307;SDS011;7755;52.208;6.964;2024-02-21T19:38:57;7.97;;;6.07;;
15307;SDS011;7755;52.208;6.964;2024-02-21T19:43:02;6.23;;;5.40;;
15307;SDS011;7755;52.208;6.964;2024-02-21T19:47:08;7.80;;;6.53;;
15307;SDS011;7755;52.208;6.964;2024-02-21T19:51:15;7.77;;;6.40;;
15307;SDS011;7755;52.208;6.964;2024-02-21T19:55:22;7.60;;;5.87;;
15307;SDS011;7755;52.208;6.964;2024-02-21T19:59:28;7.80;;;6.13;;
15307;SDS011;7755;52.208;6.964;2024-02-21T20:03:34;8.33;;;6.73;;
15307;SDS011;7755;52.208;6.964;2024-02-21T20:07:40;10.47;;;6.70;;
15307;SDS011;7755;52.208;6.964;2024-02-21T20:11:48;10.10;;;6.63;;
15307;SDS011;7755;52.208;6.964;2024-02-21T20:15:53;8.70;;;6.93;;
15307;SDS011;7755;52.208;6.964;2024-02-21T20:19:58;8.60;;;7.77;;
15307;SDS011;7755;52.208;6.964;2024-02-21T20:24:05;11.07;;;8.30;;
15307;SDS011;7755;52.208;6.964;2024-02-21T20:28:20;11.40;;;8.57;;
15307;SDS011;7755;52.208;6.964;2024-02-21T20:32:26;11.07;;;9.57;;
15307;SDS011;7755;52.208;6.964;2024-02-21T20:36:31;12.37;;;10.27;;
15307;SDS011;7755;52.208;6.964;2024-02-21T20:40:36;11.27;;;10.07;;
15307;SDS011;7755;52.208;6.964;2024-02-21T20:44:43;12.50;;;10.80;;
15307;SDS011;7755;52.208;6.964;2024-02-21T20:48:48;12.93;;;10.80;;
15307;SDS011;7755;52.208;6.964;2024-02-21T20:52:53;12.83;;;11.07;;
15307;SDS011;7755;52.208;6.964;2024-02-21T20:56:58;15.00;;;10.77;;
15307;SDS011;7755;52.208;6.964;2024-02-21T21:01:06;13.83;;;11.20;;
15307;SDS011;7755;52.208;6.964;2024-02-21T21:05:11;12.80;;;11.43;;
15307;SDS011;7755;52.208;6.964;2024-02-21T21:09:16;15.13;;;12.17;;
15307;SDS011;7755;52.208;6.964;2024-02-21T21:13:21;14.20;;;12.70;;
15307;SDS011;7755;52.208;6.964;2024-02-21T21:17:38;12.90;;;11.60;;
15307;SDS011;7755;52.208;6.964;2024-02-21T21:21:43;13.93;;;12.43;;
15307;SDS011;7755;52.208;6.964;2024-02-21T21:25:50;14.27;;;11.77;;
15307;SDS011;7755;52.208;6.964;2024-02-21T21:29:57;17.10;;;13.27;;
15307;SDS011;7755;52.208;6.964;2024-02-21T21:34:04;13.97;;;12.03;;
15307;SDS011;7755;52.208;6.964;2024-02-21T21:38:09;14.57;;;13.23;;
15307;SDS011;7755;52.208;6.964;2024-02-21T21:42:15;15.23;;;12.53;;
15307;SDS011;7755;52.208;6.964;2024-02-21T21:46:20;15.00;;;13.53;;
15307;SDS011;7755;52.208;6.964;2024-02-21T21:50:27;13.20;;;11.93;;
15307;SDS011;7755;52.208;6.964;2024-02-21T21:54:33;15.37;;;13.27;;
15307;SDS011;7755;52.208;6.964;2024-02-21T21:58:39;14.83;;;13.33;;
15307;SDS011;7755;52.208;6.964;2024-02-21T22:02:44;13.70;;;12.40;;
15307;SDS011;7755;52.208;6.964;2024-02-21T22:06:52;15.43;;;13.90;;
15307;SDS011;7755;52.208;6.964;2024-02-21T22:10:57;14.97;;;13.43;;
15307;SDS011;7755;52.208;6.964;2024-02-21T22:15:03;13.60;;;12.30;;
15307;SDS011;7755;52.208;6.964;2024-02-21T22:19:08;13.53;;;12.20;;
15307;SDS011;7755;52.208;6.964;2024-02-21T22:23:16;14.23;;;12.83;;
15307;SDS011;7755;52.208;6.964;2024-02-21T22:27:22;13.67;;;11.57;;
15307;SDS011;7755;52.208;6.964;2024-02-21T22:31:28;13.33;;;12.03;;
15307;SDS011;7755;52.208;6.964;2024-02-21T22:35:33;13.90;;;12.07;;
15307;SDS011;7755;52.208;6.964;2024-02-21T22:39:41;14.33;;;13.03;;
15307;SDS011;7755;52.208;6.964;2024-02-21T22:43:46;14.50;;;13.20;;
15307;SDS011;7755;52.208;6.964;2024-02-21T22:47:52;14.83;;;13.53;;
15307;SDS011;7755;52.208;6.964;2024-02-21T22:51:56;12.37;;;11.23;;
15307;SDS011;7755;52.208;6.964;2024-02-21T22:56:04;12.63;;;11.47;;
15307;SDS011;7755;52.208;6.964;2024-02-21T23:00:10;13.43;;;12.23;;
15307;SDS011;7755;52.208;6.964;2024-02-21T23:04:17;12.17;;;10.97;;
15307;SDS011;7755;52.208;6.964;2024-02-21T23:08:22;11.87;;;10.77;;
15307;SDS011;7755;52.208;6.964;2024-02-21T23:12:31;12.50;;;11.20;;
15307;SDS011;7755;52.208;6.964;2024-02-21T23:16:37;10.10;;;9.20;;
15307;SDS011;7755;52.208;6.964;2024-02-21T23:20:42;10.87;;;9.87;;
15307;SDS011;7755;52.208;6.964;2024-02-21T23:24:50;9.63;;;8.67;;
15307;SDS011;7755;52.208;6.964;2024-02-21T23:28:58;10.10;;;9.10;;
15307;SDS011;7755;52.208;6.964;2024-02-21T23:33:04;7.60;;;7.00;;
15307;SDS011;7755;52.208;6.964;2024-02-21T23:37:09;8.73;;;7.90;;
15307;SDS011;7755;52.208;6.964;2024-02-21T23:41:15;7.83;;;7.03;;
15307;SDS011;7755;52.208;6.964;2024-02-21T23:45:23;7.10;;;6.47;;
15307;SDS011;7755;52.208;6.964;2024-02-21T23:49:28;6.27;;;5.77;;
15307;SDS011;7755;52.208;6.964;2024-02-21T23:53:33;6.63;;;6.10;;
15307;SDS011;7755;52.208;6.964;2024-02-21T23:57:38;6.50;;;6.00;;
